Terminal Aerodrome Forecast
Issued by NWS

Home | Current Version | Previous Version | Text Only | Print | Product List | Glossary On
Versions: 1 2 3 4 5 6 7 8 9 10 11 12
000
FTUS44 KLZK 011739
TAFLLQ
TAF
KLLQ 011739Z 0118/0218 15005KT P6SM SCT100 OVC250
     FM020100 22003KT P6SM BKN100
     FM021400 24005KT P6SM SCT050
      TEMPO 0214/0218 5SM -SHRA BR OVC040=

USA.gov is the U.S. government's official web portal to all federal, state and local government web resources and services.